Time;durP1;ratioP1;P1;durP2;ratioP2;P2;SDS_P1;SDS_P2;PMS_P1;PMS_P2;Temp;Humidity;BMP_temperature;BMP_pressure;BME280_temperature;BME280_humidity;BME280_pressure;Samples;Min_cycle;Max_cycle;Signal;HPM_P1;HPM_P2
2022/04/19 00:01:11;;;;;;;9.18;7.35;;;12.00;99.90;;;;;;5005186;28;20022;-75
2022/04/19 00:03:37;;;;;;;11.60;6.65;;;12.00;99.90;;;;;;5008225;28;20097;-75
2022/04/19 00:06:04;;;;;;;8.05;6.70;;;11.90;99.90;;;;;;4982880;28;20113;-76
2022/04/19 00:08:30;;;;;;;15.05;8.02;;;11.90;99.90;;;;;;4982554;28;20054;-76
2022/04/19 00:10:56;;;;;;;8.55;6.95;;;11.80;99.90;;;;;;4999922;28;20490;-76
2022/04/19 00:13:22;;;;;;;8.52;6.93;;;11.70;99.90;;;;;;5000270;28;20045;-76
2022/04/19 00:15:48;;;;;;;10.60;7.80;;;11.70;99.90;;;;;;4982318;28;20054;-76
2022/04/19 00:18:14;;;;;;;14.90;7.82;;;11.60;99.90;;;;;;4999836;28;20027;-76
2022/04/19 00:20:42;;;;;;;10.95;7.35;;;11.60;99.90;;;;;;4999717;28;20022;-77
2022/04/19 00:23:15;;;;;;;9.55;7.72;;;11.60;99.90;;;;;;4999727;28;20026;-77
2022/04/19 00:25:45;;;;;;;9.00;7.00;;;11.70;99.90;;;;;;4982320;28;20022;-77
2022/04/19 00:28:12;;;;;;;9.90;7.20;;;11.60;99.90;;;;;;4982337;28;20031;-76
2022/04/19 00:30:38;;;;;;;14.32;7.50;;;11.50;99.90;;;;;;4982180;28;20487;-77
2022/04/19 00:33:05;;;;;;;9.95;7.60;;;11.30;99.90;;;;;;4982002;28;20113;-77
2022/04/19 00:35:32;;;;;;;12.02;8.15;;;11.30;99.90;;;;;;4982347;28;20026;-76
2022/04/19 00:37:59;;;;;;;10.65;8.05;;;11.30;99.90;;;;;;4999348;28;20065;-75
2022/04/19 00:40:25;;;;;;;9.10;7.60;;;11.20;99.90;;;;;;4998958;28;20401;-76
2022/04/19 00:42:53;;;;;;;12.25;8.45;;;11.20;99.90;;;;;;4999068;28;20042;-76
2022/04/19 00:45:20;;;;;;;9.43;7.93;;;11.30;99.90;;;;;;4981806;28;20033;-77
2022/04/19 00:47:45;;;;;;;8.73;6.95;;;11.30;99.90;;;;;;4981597;28;20564;-76
2022/04/19 00:50:12;;;;;;;11.75;7.88;;;11.30;99.90;;;;;;4999622;28;20063;-76
2022/04/19 00:52:38;;;;;;;8.93;8.02;;;11.30;99.90;;;;;;4984163;28;20050;-77
2022/04/19 00:55:07;;;;;;;10.80;8.27;;;11.30;99.90;;;;;;4999826;28;20062;-76
2022/04/19 00:57:38;;;;;;;10.20;7.18;;;11.30;99.90;;;;;;4998691;28;20116;-76
2022/04/19 01:00:14;;;;;;;12.20;7.07;;;11.20;99.90;;;;;;4998603;28;20026;-77
2022/04/19 01:02:40;;;;;;;11.88;8.05;;;11.10;99.90;;;;;;5014612;28;20394;-76
2022/04/19 01:05:08;;;;;;;9.10;6.90;;;11.00;99.90;;;;;;5017722;28;20041;-76
2022/04/19 01:07:34;;;;;;;13.35;8.40;;;11.00;99.90;;;;;;5018656;28;20438;-76
2022/04/19 01:10:01;;;;;;;9.30;8.00;;;11.00;99.90;;;;;;5018529;28;20025;-75
2022/04/19 01:15:14;;;;;;;9.07;8.05;;;10.90;99.90;;;;;;5019103;28;20140;-76
2022/04/19 01:17:40;;;;;;;9.98;8.70;;;10.80;99.90;;;;;;5017463;28;20030;-76
2022/04/19 01:20:08;;;;;;;12.38;9.60;;;10.90;99.90;;;;;;5017105;28;20497;-76
2022/04/19 01:22:38;;;;;;;11.95;8.20;;;10.80;99.90;;;;;;5017017;28;20567;-76
2022/04/19 01:25:05;;;;;;;13.88;8.15;;;10.90;99.90;;;;;;5016990;28;20017;-76
2022/04/19 01:27:31;;;;;;;12.43;8.82;;;10.80;99.90;;;;;;5018423;28;20034;-76
2022/04/19 01:30:01;;;;;;;16.60;9.23;;;10.80;99.90;;;;;;5018252;28;20018;-76
2022/04/19 01:32:28;;;;;;;10.48;8.48;;;10.80;99.90;;;;;;5018073;28;20466;-76
2022/04/19 01:35:13;;;;;;;9.27;8.00;;;10.70;99.90;;;;;;5018116;28;20029;-78
2022/04/19 01:37:42;;;;;;;12.25;8.38;;;10.60;99.90;;;;;;5018426;28;20026;-76
2022/04/19 01:40:18;;;;;;;10.02;8.75;;;10.50;99.90;;;;;;5017962;28;20018;-76
2022/04/19 01:42:49;;;;;;;16.95;9.35;;;10.40;99.90;;;;;;5018058;28;20030;-75
2022/04/19 01:45:18;;;;;;;12.13;9.23;;;10.40;99.90;;;;;;5016644;28;20022;-76
2022/04/19 01:47:44;;;;;;;17.45;9.52;;;10.30;99.90;;;;;;5017686;28;20120;-77
2022/04/19 01:50:12;;;;;;;11.65;9.00;;;10.30;99.90;;;;;;5016565;28;20026;-76
2022/04/19 01:52:40;;;;;;;11.13;8.50;;;10.30;99.90;;;;;;5015615;28;20057;-75
2022/04/19 01:55:08;;;;;;;10.77;9.27;;;10.30;99.90;;;;;;4980824;28;20022;-77
2022/04/19 01:57:34;;;;;;;11.18;8.57;;;10.30;99.90;;;;;;4998382;28;20033;-76
2022/04/19 02:00:01;;;;;;;10.23;8.65;;;10.30;99.90;;;;;;4998155;28;20104;-75
2022/04/19 02:02:27;;;;;;;11.88;9.02;;;10.30;99.90;;;;;;4995996;28;20095;-76
2022/04/19 02:04:53;;;;;;;12.80;8.98;;;10.30;99.90;;;;;;5017851;28;20482;-76
2022/04/19 02:07:18;;;;;;;13.23;9.75;;;10.30;99.90;;;;;;4999966;28;20080;-76
2022/04/19 02:09:44;;;;;;;16.98;9.88;;;10.40;99.90;;;;;;5017807;28;20044;-76
2022/04/19 02:12:10;;;;;;;14.80;8.85;;;10.40;99.90;;;;;;5017973;28;20030;-77
2022/04/19 02:14:38;;;;;;;10.73;9.07;;;10.50;99.90;;;;;;5018060;28;20030;-76
2022/04/19 02:17:05;;;;;;;11.43;8.32;;;10.50;99.90;;;;;;5017540;28;20029;-77
2022/04/19 02:19:33;;;;;;;14.45;8.98;;;10.50;99.90;;;;;;5017756;28;20040;-77
2022/04/19 02:21:58;;;;;;;12.25;9.52;;;10.60;99.90;;;;;;5017234;28;20033;-77
2022/04/19 02:24:24;;;;;;;15.10;10.13;;;10.60;99.90;;;;;;5000003;28;20018;-76
2022/04/19 02:26:50;;;;;;;14.63;9.02;;;10.60;99.90;;;;;;5017382;28;20351;-76
2022/04/19 02:29:16;;;;;;;13.80;9.43;;;10.70;99.90;;;;;;4999843;28;20030;-76
2022/04/19 02:31:42;;;;;;;10.48;8.65;;;10.80;99.90;;;;;;4999682;28;20034;-78
2022/04/19 02:34:08;;;;;;;13.18;9.30;;;10.80;99.90;;;;;;5017308;28;20060;-76
2022/04/19 02:36:34;;;;;;;12.80;8.88;;;10.90;99.90;;;;;;5017191;28;20029;-76
2022/04/19 02:39:01;;;;;;;13.00;9.32;;;10.90;99.90;;;;;;5017699;28;20466;-75
2022/04/19 02:41:28;;;;;;;12.82;9.43;;;11.00;99.90;;;;;;4999599;28;20040;-75
2022/04/19 02:43:54;;;;;;;11.70;9.13;;;11.00;99.90;;;;;;5017595;28;20032;-76
2022/04/19 02:46:20;;;;;;;11.10;9.43;;;11.10;99.90;;;;;;4999451;28;20505;-75
2022/04/19 02:48:45;;;;;;;15.10;9.55;;;11.10;99.90;;;;;;4999373;28;20390;-77
2022/04/19 02:51:11;;;;;;;9.85;8.85;;;11.20;99.90;;;;;;4999510;28;20029;-75
2022/04/19 02:53:37;;;;;;;11.80;8.77;;;11.20;99.90;;;;;;5007115;28;20050;-76
2022/04/19 02:56:03;;;;;;;11.10;8.93;;;11.20;99.90;;;;;;4979905;28;20033;-76
2022/04/19 02:58:29;;;;;;;11.40;9.10;;;11.30;99.90;;;;;;4997736;28;20054;-76
2022/04/19 03:00:56;;;;;;;15.10;9.27;;;11.30;99.90;;;;;;4983432;28;20070;-76
2022/04/19 03:03:21;;;;;;;15.07;9.48;;;11.30;99.90;;;;;;5019835;28;20018;-75
2022/04/19 03:05:48;;;;;;;13.32;9.30;;;11.30;99.90;;;;;;5003460;28;20026;-76
2022/04/19 03:08:14;;;;;;;13.45;9.00;;;11.40;99.90;;;;;;5003193;28;20026;-75
2022/04/19 03:10:40;;;;;;;14.90;9.82;;;11.40;99.90;;;;;;5020771;28;20030;-76
2022/04/19 03:13:05;;;;;;;11.90;8.77;;;11.40;99.90;;;;;;5020932;28;20026;-76
2022/04/19 03:15:34;;;;;;;15.00;8.48;;;11.40;99.90;;;;;;5020736;28;20056;-76
2022/04/19 03:18:01;;;;;;;14.23;9.52;;;11.40;99.90;;;;;;5003164;28;20026;-76
2022/04/19 03:20:27;;;;;;;11.43;8.40;;;11.40;99.90;;;;;;5020514;28;20445;-76
2022/04/19 03:28:21;;;;;;;10.55;8.85;;;11.40;99.90;;;;;;5020724;28;20037;-77
2022/04/19 03:30:47;;;;;;;12.30;8.95;;;11.40;99.90;;;;;;5020627;28;20018;-75
2022/04/19 03:33:13;;;;;;;15.55;9.43;;;11.40;99.90;;;;;;5020277;28;20397;-75
2022/04/19 03:35:39;;;;;;;13.70;9.35;;;11.40;99.90;;;;;;5020459;28;20030;-76
2022/04/19 03:38:05;;;;;;;12.50;8.77;;;11.40;99.90;;;;;;5020261;28;20057;-73
2022/04/19 03:40:31;;;;;;;11.48;8.73;;;11.50;99.90;;;;;;5020463;28;20026;-76
2022/04/19 03:42:57;;;;;;;18.58;9.45;;;11.40;99.90;;;;;;5020012;28;20033;-76
2022/04/19 03:45:23;;;;;;;13.15;8.98;;;11.40;99.90;;;;;;5020440;28;20124;-76
2022/04/19 03:47:49;;;;;;;17.52;10.20;;;11.50;99.90;;;;;;5002257;28;20021;-75
2022/04/19 03:50:15;;;;;;;19.55;9.45;;;11.40;99.90;;;;;;5002509;28;20026;-76
2022/04/19 03:52:42;;;;;;;15.38;9.95;;;11.50;99.90;;;;;;5017423;28;20042;-76
2022/04/19 03:55:09;;;;;;;14.18;10.02;;;11.50;99.90;;;;;;4983284;28;20038;-76
2022/04/19 03:57:35;;;;;;;11.63;9.68;;;11.50;99.90;;;;;;4983037;28;20026;-75
2022/04/19 04:00:01;;;;;;;14.88;10.30;;;11.50;99.90;;;;;;4982978;28;20065;-76
2022/04/19 04:02:27;;;;;;;17.48;10.60;;;11.50;99.90;;;;;;4997991;28;20026;-76
2022/04/19 04:04:53;;;;;;;17.10;10.70;;;11.50;99.90;;;;;;5002375;28;20048;-76
2022/04/19 04:07:18;;;;;;;15.38;10.10;;;11.50;99.90;;;;;;5019697;28;20026;-76
2022/04/19 04:09:44;;;;;;;15.20;9.88;;;11.60;99.90;;;;;;5019791;28;20021;-76
2022/04/19 04:12:12;;;;;;;13.27;10.90;;;11.50;99.90;;;;;;5002379;28;20022;-76
2022/04/19 04:14:40;;;;;;;15.88;10.60;;;11.50;99.90;;;;;;5000873;28;20076;-75
2022/04/19 04:17:06;;;;;;;13.40;10.15;;;11.60;99.90;;;;;;5001387;28;20034;-76
2022/04/19 04:19:31;;;;;;;13.63;10.48;;;11.60;99.90;;;;;;5019583;28;20030;-77
2022/04/19 04:21:57;;;;;;;13.52;10.57;;;11.60;99.90;;;;;;5019206;28;20026;-76
2022/04/19 04:24:23;;;;;;;17.98;11.27;;;11.60;99.90;;;;;;5019511;28;20018;-76
2022/04/19 04:26:49;;;;;;;14.07;11.23;;;11.60;99.90;;;;;;5019401;28;20022;-75
2022/04/19 04:29:15;;;;;;;15.02;11.35;;;11.60;99.90;;;;;;5001856;28;20082;-75
2022/04/19 04:31:41;;;;;;;15.40;11.02;;;11.60;99.90;;;;;;5019297;28;20088;-75
2022/04/19 04:34:07;;;;;;;16.95;10.93;;;11.60;99.90;;;;;;5019189;28;20018;-76
2022/04/19 04:36:33;;;;;;;19.13;11.98;;;11.60;99.90;;;;;;5019232;28;20052;-75
2022/04/19 04:38:59;;;;;;;22.15;11.77;;;11.60;99.90;;;;;;5002053;28;20026;-76
2022/04/19 04:41:25;;;;;;;20.83;13.48;;;11.60;99.90;;;;;;5019048;28;20025;-75
2022/04/19 04:43:51;;;;;;;22.65;12.63;;;11.60;99.90;;;;;;5019738;28;20052;-75
2022/04/19 04:51:45;;;;;;;16.50;12.07;;;11.70;99.90;;;;;;5019238;28;20080;-75
2022/04/19 04:54:11;;;;;;;27.80;12.70;;;11.70;99.90;;;;;;5004198;28;20050;-76
2022/04/19 04:56:37;;;;;;;17.42;13.35;;;11.70;99.90;;;;;;4981846;28;20037;-76
2022/04/19 04:59:03;;;;;;;19.17;14.10;;;11.70;99.90;;;;;;4993760;28;20027;-76
2022/04/19 05:01:29;;;;;;;22.75;13.40;;;11.70;99.90;;;;;;5009397;28;20022;-76
2022/04/19 05:03:54;;;;;;;19.90;14.30;;;11.70;99.90;;;;;;5018599;28;20514;-76
2022/04/19 05:06:20;;;;;;;22.90;13.88;;;11.70;99.90;;;;;;5018782;28;20022;-75
2022/04/19 05:08:46;;;;;;;21.55;13.50;;;11.70;99.90;;;;;;5018481;28;20026;-76
2022/04/19 05:11:12;;;;;;;28.00;15.35;;;11.70;99.90;;;;;;5018778;28;20105;-75
2022/04/19 05:13:38;;;;;;;20.08;14.10;;;11.70;99.90;;;;;;5018435;28;20440;-75
2022/04/19 05:16:04;;;;;;;30.23;14.68;;;11.70;99.90;;;;;;5018623;28;20029;-76
2022/04/19 05:18:33;;;;;;;22.00;14.32;;;11.70;99.90;;;;;;5018237;28;20030;-76
2022/04/19 05:20:59;;;;;;;21.60;14.98;;;11.70;99.90;;;;;;5018488;28;20030;-76
2022/04/19 05:23:24;;;;;;;17.05;14.05;;;11.70;99.90;;;;;;5000737;28;20405;-76
2022/04/19 05:25:50;;;;;;;18.08;13.32;;;11.80;99.90;;;;;;5018056;28;20025;-76
2022/04/19 05:28:16;;;;;;;21.05;14.45;;;11.80;99.90;;;;;;5000641;28;20098;-76
2022/04/19 05:30:42;;;;;;;25.70;14.68;;;11.80;99.90;;;;;;5000709;28;20018;-76
2022/04/19 05:33:09;;;;;;;21.40;14.63;;;11.90;99.90;;;;;;5000191;28;20112;-75
2022/04/19 05:35:35;;;;;;;24.50;16.27;;;11.90;99.90;;;;;;4992716;28;20158;-75
2022/04/19 05:38:01;;;;;;;21.77;14.07;;;11.90;99.90;;;;;;4998869;28;20101;-75
2022/04/19 05:40:27;;;;;;;27.55;15.27;;;11.90;99.90;;;;;;4981631;28;20028;-74
2022/04/19 05:42:53;;;;;;;21.08;14.57;;;12.00;99.90;;;;;;4998681;28;20026;-74
2022/04/19 05:45:19;;;;;;;27.30;16.25;;;12.00;99.90;;;;;;4999284;28;20019;-74
2022/04/19 05:47:44;;;;;;;21.35;15.20;;;12.00;99.90;;;;;;5000648;28;20514;-74
2022/04/19 05:50:11;;;;;;;21.50;14.23;;;12.00;99.90;;;;;;4982659;28;20041;-74
2022/04/19 05:52:37;;;;;;;23.40;15.30;;;12.10;99.90;;;;;;4983042;28;20086;-75
2022/04/19 05:55:04;;;;;;;24.17;14.75;;;12.10;99.90;;;;;;5000149;28;20038;-74
2022/04/19 05:57:30;;;;;;;26.27;14.75;;;12.20;99.90;;;;;;4999993;28;20034;-74
2022/04/19 05:59:56;;;;;;;17.50;13.10;;;12.20;99.90;;;;;;5006581;28;20027;-76
2022/04/19 06:05:06;;;;;;;24.40;15.10;;;12.20;99.90;;;;;;4992689;28;20056;-75
2022/04/19 06:07:32;;;;;;;22.60;14.05;;;12.30;99.90;;;;;;4997853;28;20029;-76
2022/04/19 06:09:59;;;;;;;19.33;12.52;;;12.30;99.90;;;;;;4996817;28;20027;-76
2022/04/19 06:12:25;;;;;;;18.55;12.75;;;12.30;99.90;;;;;;4996784;28;20034;-76
2022/04/19 06:14:52;;;;;;;16.45;12.40;;;12.30;99.90;;;;;;4996831;28;20049;-76
2022/04/19 06:17:18;;;;;;;17.90;10.55;;;12.30;99.90;;;;;;4996488;28;20030;-77
2022/04/19 06:19:44;;;;;;;16.48;11.30;;;12.30;99.90;;;;;;4996592;28;20077;-76
2022/04/19 06:22:10;;;;;;;30.35;10.68;;;12.20;99.90;;;;;;4997610;28;20026;-77
2022/04/19 06:24:37;;;;;;;15.68;10.63;;;12.20;99.90;;;;;;4996638;28;20498;-77
2022/04/19 06:27:03;;;;;;;15.93;10.40;;;12.20;99.90;;;;;;4996533;28;20034;-77
2022/04/19 06:29:29;;;;;;;15.35;11.23;;;12.20;99.90;;;;;;4997914;28;20030;-76
2022/04/19 06:31:56;;;;;;;23.65;11.27;;;12.20;99.90;;;;;;4997527;28;20030;-76
2022/04/19 06:34:21;;;;;;;13.73;9.68;;;12.20;99.90;;;;;;4997697;28;20033;-77
2022/04/19 06:36:47;;;;;;;16.52;10.88;;;12.20;99.90;;;;;;5015679;28;20046;-76
2022/04/19 06:39:13;;;;;;;18.70;11.18;;;12.20;99.90;;;;;;5020205;28;20497;-77
2022/04/19 06:41:41;;;;;;;17.23;10.23;;;12.20;99.90;;;;;;5021380;28;20038;-76
2022/04/19 06:44:08;;;;;;;15.32;10.65;;;12.30;99.90;;;;;;5021599;28;20036;-76
2022/04/19 06:46:36;;;;;;;14.13;10.38;;;12.20;99.90;;;;;;5019982;28;20025;-76
2022/04/19 06:49:07;;;;;;;15.85;11.48;;;12.20;99.90;;;;;;5021006;28;20397;-76
2022/04/19 06:51:33;;;;;;;14.18;10.95;;;12.30;99.90;;;;;;5021184;28;20022;-76
2022/04/19 06:53:59;;;;;;;16.77;9.82;;;12.30;99.90;;;;;;5008080;28;20058;-76
2022/04/19 06:56:25;;;;;;;12.27;10.57;;;12.30;99.90;;;;;;4982888;28;20031;-76
2022/04/19 06:58:51;;;;;;;19.27;11.40;;;12.30;99.90;;;;;;4983603;28;20049;-76
2022/04/19 07:01:17;;;;;;;17.92;10.23;;;12.30;99.90;;;;;;4988926;28;20030;-77
2022/04/19 07:03:43;;;;;;;15.77;9.88;;;12.30;99.90;;;;;;4984402;28;20049;-76
2022/04/19 07:06:08;;;;;;;14.52;10.70;;;12.30;99.90;;;;;;4976404;28;20045;-76
2022/04/19 07:08:34;;;;;;;12.90;8.88;;;12.30;99.90;;;;;;5000510;28;20018;-76
2022/04/19 07:11:01;;;;;;;16.40;10.63;;;12.30;99.90;;;;;;4982956;28;20015;-75
2022/04/19 07:13:27;;;;;;;19.27;11.38;;;12.30;99.90;;;;;;4999826;28;20101;-76
2022/04/19 07:15:53;;;;;;;13.43;11.07;;;12.30;99.90;;;;;;4990327;28;20061;-76
2022/04/19 07:18:23;;;;;;;18.80;10.88;;;12.30;99.90;;;;;;4991568;28;20042;-75
2022/04/19 07:26:38;;;;;;;17.08;11.77;;;12.20;99.90;;;;;;4942550;28;20023;-74
2022/04/19 07:29:05;;;;;;;18.85;12.43;;;12.30;99.90;;;;;;4960241;29;20024;-75
2022/04/19 07:31:32;;;;;;;18.38;10.85;;;12.40;99.90;;;;;;4978549;28;20033;-75
2022/04/19 07:33:59;;;;;;;16.75;11.23;;;12.40;99.90;;;;;;4969542;28;20449;-75
2022/04/19 07:36:25;;;;;;;21.83;13.38;;;12.50;99.90;;;;;;4982960;28;20088;-76
2022/04/19 07:38:51;;;;;;;21.08;12.15;;;12.40;99.90;;;;;;4983175;28;20022;-75
2022/04/19 07:41:18;;;;;;;20.27;13.13;;;12.50;99.90;;;;;;5000538;28;20030;-75
2022/04/19 07:43:45;;;;;;;18.67;12.35;;;12.50;99.90;;;;;;4998345;28;20025;-75
2022/04/19 07:46:15;;;;;;;16.70;13.15;;;12.60;99.90;;;;;;4980326;28;20497;-75
2022/04/19 07:48:44;;;;;;;18.88;12.68;;;12.50;99.90;;;;;;4999883;28;20046;-76
2022/04/19 07:51:11;;;;;;;19.30;13.25;;;12.50;99.90;;;;;;4982429;28;20117;-75
2022/04/19 07:53:37;;;;;;;23.75;13.52;;;12.40;99.90;;;;;;4999983;28;20407;-75
2022/04/19 07:56:03;;;;;;;27.35;15.27;;;12.30;99.90;;;;;;5000145;28;20153;-76
2022/04/19 07:58:29;;;;;;;23.98;14.43;;;12.20;99.90;;;;;;4999575;28;20030;-75
2022/04/19 08:00:56;;;;;;;24.80;15.50;;;12.30;99.90;;;;;;5002653;28;20536;-76
2022/04/19 08:03:22;;;;;;;23.80;13.43;;;12.20;99.90;;;;;;5019224;28;20057;-75
2022/04/19 08:05:48;;;;;;;17.27;12.85;;;12.20;99.90;;;;;;4987730;28;20026;-75
2022/04/19 08:08:14;;;;;;;18.67;13.13;;;12.20;99.90;;;;;;4998877;28;20050;-76
2022/04/19 08:10:39;;;;;;;21.02;15.30;;;12.10;99.90;;;;;;4982540;28;20031;-75
2022/04/19 08:13:05;;;;;;;22.85;15.85;;;12.20;99.90;;;;;;4982520;28;20027;-75
2022/04/19 08:15:32;;;;;;;22.65;15.23;;;12.10;99.90;;;;;;4982408;28;20034;-75
2022/04/19 08:17:58;;;;;;;19.73;14.15;;;12.10;99.90;;;;;;4982177;28;20461;-74
2022/04/19 08:20:25;;;;;;;20.55;15.38;;;12.00;99.90;;;;;;4982334;28;20094;-76
2022/04/19 08:22:50;;;;;;;21.70;16.48;;;12.10;99.90;;;;;;4999660;28;20483;-76
2022/04/19 08:25:17;;;;;;;27.85;17.35;;;12.10;99.90;;;;;;4999717;28;20030;-77
2022/04/19 08:27:45;;;;;;;29.70;17.00;;;12.10;99.90;;;;;;4981998;28;20023;-75
2022/04/19 08:30:13;;;;;;;26.38;16.52;;;12.20;99.90;;;;;;4981370;28;20422;-75
2022/04/19 08:32:39;;;;;;;28.83;21.45;;;12.10;99.90;;;;;;4981951;28;20030;-75
2022/04/19 08:35:06;;;;;;;29.13;20.27;;;12.10;99.90;;;;;;4981912;28;20034;-76
2022/04/19 08:37:34;;;;;;;30.20;18.60;;;12.10;99.90;;;;;;4999568;28;20109;-76
2022/04/19 08:40:01;;;;;;;36.25;19.13;;;12.20;99.90;;;;;;4999240;28;20022;-76
2022/04/19 08:42:29;;;;;;;29.25;20.08;;;12.20;99.90;;;;;;4999225;28;20034;-76
2022/04/19 08:45:03;;;;;;;26.10;17.40;;;12.30;99.90;;;;;;4999548;28;20114;-75
2022/04/19 08:47:33;;;;;;;29.42;17.83;;;12.30;99.90;;;;;;4999259;28;20014;-75
2022/04/19 08:50:05;;;;;;;29.92;18.50;;;12.30;99.90;;;;;;4998695;28;20026;-75
2022/04/19 08:52:32;;;;;;;25.45;18.33;;;12.40;99.90;;;;;;4980469;28;20042;-75
2022/04/19 08:57:43;;;;;;;22.58;17.42;;;12.40;99.90;;;;;;4999155;28;20402;-77
2022/04/19 09:00:10;;;;;;;32.45;19.50;;;12.40;99.90;;;;;;4980705;28;20026;-75
2022/04/19 09:02:39;;;;;;;20.50;15.50;;;12.50;99.90;;;;;;4998105;28;20029;-75
2022/04/19 09:05:26;;;;;;;25.08;17.08;;;12.40;99.90;;;;;;4981554;28;20410;-76
2022/04/19 09:07:54;;;;;;;23.80;15.88;;;12.50;99.90;;;;;;4998797;28;20049;-75
2022/04/19 09:10:32;;;;;;;25.25;17.00;;;12.50;99.90;;;;;;4980839;28;20395;-76
2022/04/19 09:13:09;;;;;;;24.65;15.68;;;12.50;99.90;;;;;;4998393;28;20026;-75
2022/04/19 09:15:37;;;;;;;25.20;16.60;;;12.50;99.90;;;;;;4998578;28;20030;-75
2022/04/19 09:18:04;;;;;;;27.50;17.92;;;12.50;99.90;;;;;;4980840;28;20088;-75
2022/04/19 09:20:31;;;;;;;27.08;18.90;;;12.50;99.90;;;;;;4981013;28;20034;-76
2022/04/19 09:23:15;;;;;;;24.73;17.55;;;12.50;99.90;;;;;;4980730;28;20026;-75
2022/04/19 09:25:43;;;;;;;22.55;16.77;;;12.50;99.90;;;;;;4998521;28;20033;-77
2022/04/19 09:28:20;;;;;;;28.52;17.95;;;12.50;99.90;;;;;;4981103;28;20552;-77
2022/04/19 09:30:51;;;;;;;24.45;16.95;;;12.50;99.90;;;;;;4998565;28;20138;-76
2022/04/19 09:33:21;;;;;;;25.33;15.73;;;12.50;99.90;;;;;;4997990;28;20026;-76
2022/04/19 09:35:57;;;;;;;25.93;18.03;;;12.50;99.90;;;;;;4998176;28;20466;-76
2022/04/19 09:38:36;;;;;;;28.80;16.48;;;12.50;99.90;;;;;;4998243;28;20030;-74
2022/04/19 09:41:02;;;;;;;29.75;16.00;;;12.60;99.90;;;;;;4998376;28;20022;-75
2022/04/19 09:43:28;;;;;;;30.33;15.85;;;12.70;99.90;;;;;;4997890;28;20030;-74
2022/04/19 09:45:59;;;;;;;26.42;14.88;;;12.70;99.90;;;;;;4998367;28;20097;-75
2022/04/19 09:48:32;;;;;;;18.88;14.90;;;12.80;99.90;;;;;;4980886;28;20513;-74
2022/04/19 09:51:09;;;;;;;21.15;15.23;;;12.80;99.90;;;;;;4980492;28;20034;-76
2022/04/19 09:53:41;;;;;;;22.23;14.48;;;12.80;99.90;;;;;;4997865;28;20091;-74
2022/04/19 09:56:14;;;;;;;21.98;14.48;;;12.90;99.90;;;;;;4980655;28;20033;-74
2022/04/19 09:58:45;;;;;;;23.40;14.30;;;13.00;99.90;;;;;;4998005;28;20041;-74
2022/04/19 10:09:36;;;;;;;85.22;18.98;;;13.40;99.90;;;;;;4937913;29;20043;-77
2022/04/19 10:12:04;;;;;;;33.45;13.55;;;13.50;99.90;;;;;;4979316;28;20048;-76
2022/04/19 10:14:31;;;;;;;19.77;13.35;;;13.40;99.90;;;;;;5017579;28;20037;-77
2022/04/19 10:17:01;;;;;;;21.13;14.48;;;13.40;99.90;;;;;;5017276;28;20034;-77
2022/04/19 10:19:28;;;;;;;17.50;13.43;;;13.40;99.90;;;;;;5017557;28;20091;-76
2022/04/19 10:21:58;;;;;;;17.52;12.65;;;13.30;99.90;;;;;;5017131;28;20049;-77
2022/04/19 10:24:27;;;;;;;17.23;12.40;;;13.30;99.90;;;;;;4999335;28;20109;-75
2022/04/19 10:26:53;;;;;;;20.98;14.32;;;13.20;99.90;;;;;;5017302;28;20022;-76
2022/04/19 10:29:30;;;;;;;16.38;11.98;;;13.20;99.90;;;;;;4996115;28;20032;-77
2022/04/19 10:32:06;;;;;;;18.75;11.30;;;13.20;99.90;;;;;;4975416;28;20030;-77
2022/04/19 10:34:37;;;;;;;17.17;12.70;;;13.30;99.90;;;;;;4963590;28;20023;-77
2022/04/19 10:37:13;;;;;;;18.63;12.57;;;13.30;99.90;;;;;;4984833;28;20027;-76
2022/04/19 10:39:46;;;;;;;22.50;13.10;;;13.20;99.90;;;;;;4997872;28;20386;-76
2022/04/19 10:42:38;;;;;;;18.67;11.85;;;13.30;99.90;;;;;;4980003;28;20030;-77
2022/04/19 10:45:13;;;;;;;16.27;12.48;;;13.30;99.90;;;;;;4997698;28;20019;-77
2022/04/19 10:47:54;;;;;;;16.55;11.50;;;13.40;99.90;;;;;;4997357;28;20041;-77
2022/04/19 10:50:39;;;;;;;16.90;13.07;;;13.40;99.90;;;;;;4979979;28;20026;-76
2022/04/19 10:53:07;;;;;;;14.98;11.43;;;13.50;99.90;;;;;;4980382;28;20086;-76
2022/04/19 10:55:35;;;;;;;20.48;13.05;;;13.60;99.90;;;;;;5002535;28;20073;-76
2022/04/19 11:00:41;;;;;;;16.55;12.38;;;14.20;99.90;;;;;;4997691;28;20054;-76
2022/04/19 11:03:27;;;;;;;17.65;10.15;;;14.60;99.90;;;;;;4985301;28;20030;-76
2022/04/19 11:06:02;;;;;;;17.25;11.07;;;15.30;99.90;;;;;;4997318;28;20072;-77
2022/04/19 11:08:30;;;;;;;17.00;11.82;;;15.50;99.90;;;;;;4996434;28;20026;-77
2022/04/19 11:10:56;;;;;;;19.23;12.38;;;15.20;99.90;;;;;;4997415;28;20033;-77
2022/04/19 11:13:23;;;;;;;15.95;11.02;;;15.10;99.90;;;;;;4997598;28;20035;-76
2022/04/19 11:16:08;;;;;;;15.02;11.52;;;15.10;99.90;;;;;;4997213;28;20021;-75
2022/04/19 11:18:37;;;;;;;16.33;12.13;;;14.80;99.90;;;;;;4995856;28;20504;-76
2022/04/19 11:21:15;;;;;;;13.70;10.95;;;14.80;99.90;;;;;;4996084;28;20398;-77
2022/04/19 11:23:46;;;;;;;16.40;10.82;;;15.00;99.90;;;;;;4997342;28;20450;-76
2022/04/19 11:26:26;;;;;;;;;;;15.50;99.90;;;;;;5001406;28;20099;-79
2022/04/19 11:29:11;;;;;;;15.10;11.30;;;15.90;99.90;;;;;;4999513;28;19906;-77
2022/04/19 11:31:54;;;;;;;12.32;10.10;;;16.30;99.90;;;;;;5000026;28;20037;-76
2022/04/19 11:34:20;;;;;;;18.27;11.55;;;16.50;99.90;;;;;;5000239;28;20076;-77
2022/04/19 11:36:46;;;;;;;13.88;11.27;;;16.20;99.90;;;;;;4998832;28;20109;-77
2022/04/19 11:47:47;;;;;;;11.85;9.27;;;16.60;99.90;;;;;;5000075;28;20029;-77
2022/04/19 11:50:32;;;;;;;11.25;9.68;;;16.90;99.90;;;;;;4997482;28;20089;-77
2022/04/19 11:53:00;;;;;;;11.73;9.43;;;17.20;99.90;;;;;;4993252;28;20117;-76
2022/04/19 11:55:27;;;;;;;11.93;9.85;;;17.50;99.90;;;;;;4991788;28;20037;-76
2022/04/19 11:58:09;;;;;;;11.77;8.98;;;17.60;99.90;;;;;;4998304;28;20479;-76
2022/04/19 12:00:35;;;;;;;12.95;10.23;;;17.70;99.90;;;;;;4999441;28;20471;-77
2022/04/19 12:03:21;;;;;;;14.23;8.52;;;17.40;99.90;;;;;;4998579;28;20088;-77
2022/04/19 12:05:48;;;;;;;14.02;9.35;;;17.10;99.90;;;;;;4998901;28;20090;-76
2022/04/19 12:08:33;;;;;;;12.57;9.27;;;16.40;99.90;;;;;;4995408;28;20022;-77
2022/04/19 12:11:09;;;;;;;14.15;9.70;;;15.90;99.90;;;;;;4998386;28;20026;-76
2022/04/19 12:13:39;;;;;;;13.15;10.25;;;15.40;99.90;;;;;;4999781;28;20034;-75
2022/04/19 12:16:09;;;;;;;15.77;11.77;;;15.20;99.90;;;;;;5006767;28;20030;-77
2022/04/19 12:18:37;;;;;;;18.70;11.63;;;14.90;99.90;;;;;;5018153;28;20034;-78
2022/04/19 12:21:05;;;;;;;17.27;11.20;;;14.80;99.90;;;;;;5018139;28;20026;-76
2022/04/19 12:23:31;;;;;;;14.15;10.80;;;14.80;99.90;;;;;;5017887;28;20032;-76
2022/04/19 12:26:05;;;;;;;16.23;12.63;;;14.70;99.90;;;;;;5010025;28;20028;-75
2022/04/19 12:28:43;;;;;;;16.15;11.60;;;14.60;99.90;;;;;;5000073;28;20033;-76
2022/04/19 12:31:32;;;;;;;16.52;11.30;;;14.40;99.90;;;;;;4999782;28;20028;-75
2022/04/19 12:34:00;;;;;;;14.55;10.85;;;14.20;99.90;;;;;;4998224;28;20030;-75
2022/04/19 12:36:27;;;;;;;19.20;11.25;;;14.20;99.90;;;;;;5001011;28;20447;-76
2022/04/19 12:39:04;;;;;;;15.93;11.88;;;14.10;99.90;;;;;;5018967;28;20033;-77
2022/04/19 12:41:37;;;;;;;17.42;10.88;;;14.00;99.90;;;;;;5019063;28;20097;-76
2022/04/19 12:44:04;;;;;;;17.40;11.98;;;13.90;99.90;;;;;;5018864;28;20077;-75
2022/04/19 12:46:31;;;;;;;23.45;11.93;;;14.00;99.90;;;;;;5018526;28;20017;-77
2022/04/19 12:48:57;;;;;;;19.75;11.00;;;14.10;99.90;;;;;;5019107;28;20030;-76
2022/04/19 12:51:26;;;;;;;15.80;10.82;;;14.10;99.90;;;;;;5018775;28;20105;-75
2022/04/19 12:54:03;;;;;;;13.95;10.35;;;14.10;99.90;;;;;;5001036;28;20046;-76
2022/04/19 12:59:40;;;;;;;15.85;9.82;;;14.00;99.90;;;;;;4999298;28;20084;-78
2022/04/19 13:02:06;;;;;;;16.73;10.40;;;13.90;99.90;;;;;;4986885;28;20121;-78
2022/04/19 13:04:32;;;;;;;15.13;10.70;;;13.80;99.90;;;;;;4998815;28;20045;-79
2022/04/19 13:12:27;;;;;;;22.17;12.05;;;13.70;99.90;;;;;;4999663;28;20037;-78
2022/04/19 13:14:55;;;;;;;17.38;11.45;;;13.70;99.90;;;;;;4983110;28;20034;-81
2022/04/19 13:17:23;;;;;;;16.42;10.07;;;13.60;99.90;;;;;;5009129;28;20026;-80
2022/04/19 13:19:49;;;;;;;17.05;12.00;;;13.60;99.90;;;;;;5022419;28;20026;-82
2022/04/19 13:22:16;;;;;;;20.02;11.23;;;13.60;99.90;;;;;;5001666;28;20397;-82
2022/04/19 13:24:42;;;;;;;14.75;10.27;;;13.60;99.90;;;;;;5018977;28;20026;-80
2022/04/19 13:27:10;;;;;;;17.88;11.45;;;13.50;99.90;;;;;;5003382;28;20401;-81
2022/04/19 13:29:39;;;;;;;18.08;10.70;;;13.40;99.90;;;;;;5019604;28;20026;-81